Jasper, Missouri
Current Conditions -  °F | °C
As of 3:53 PM on Tuesday 25 Nov 2014 (Local Time) from KJLN Reporting Station
Clear Clear  
Wind Chill: 40°   Ceiling: Unl
Heat Index: 44°   Visibility: 10mi
Dew Point: 19°   Wind: 7mph
Humidity: 37%   Direction: 260°W
Pressure: 30.15"   Gusts: NA
Location:  37.34°N, 94.3°W
Report Text: KJLN 252153Z 26006KT 10SM CLR 07/M07 A3015 RMK AO2 SLP216 T00671072
Loading
Personal Weather Stations






























Interactive Weather Map New forecast layout! Learn more

10-Day Weather Forecast

Advertisements
Track Severe Weather on mobile